Time;durP1;ratioP1;P1;durP2;ratioP2;P2;SDS_P1;SDS_P2;PMS_P1;PMS_P2;Temp;Humidity;BMP_temperature;BMP_pressure;BME280_temperature;BME280_humidity;BME280_pressure;Samples;Min_cycle;Max_cycle;Signal;HPM_P1;HPM_P2
2022/05/22 00:00:09;;;;;;;;;;;11.90;99.90;;;;;;5056866;28;37308;-58
2022/05/22 00:02:36;;;;;;;;;;;11.90;99.90;;;;;;5055318;28;36694;-58
2022/05/22 00:05:03;;;;;;;;;;;11.90;99.90;;;;;;5054863;28;37717;-58
2022/05/22 00:07:30;;;;;;;;;;;11.80;99.90;;;;;;5056357;28;39026;-58
2022/05/22 00:09:59;;;;;;;;;;;11.80;99.90;;;;;;5053438;28;38769;-58
2022/05/22 00:12:26;;;;;;;;;;;11.80;99.90;;;;;;5052506;28;37813;-58
2022/05/22 00:14:53;;;;;;;;;;;11.70;99.90;;;;;;5053894;28;36528;-57
2022/05/22 00:17:20;;;;;;;;;;;11.70;99.90;;;;;;5054690;28;39134;-57
2022/05/22 00:19:47;;;;;;;;;;;11.60;99.90;;;;;;5055106;28;36446;-58
2022/05/22 00:22:14;;;;;;;;;;;11.50;99.90;;;;;;5054215;28;37440;-57
2022/05/22 00:24:41;;;;;;;;;;;11.50;99.90;;;;;;5054163;28;37665;-57
2022/05/22 00:27:10;;;;;;;;;;;11.40;99.90;;;;;;5054841;28;39389;-58
2022/05/22 00:29:37;;;;;;;;;;;11.40;99.90;;;;;;5053733;28;38307;-57
2022/05/22 00:32:04;;;;;;;;;;;11.40;99.90;;;;;;5053874;28;37193;-58
2022/05/22 00:34:32;;;;;;;;;;;11.40;99.90;;;;;;5053645;28;37797;-58
2022/05/22 00:36:59;;;;;;;;;;;11.40;99.90;;;;;;5053653;28;38252;-57
2022/05/22 00:39:26;;;;;;;;;;;11.40;99.90;;;;;;5055526;28;37277;-57
2022/05/22 00:41:54;;;;;;;;;;;11.40;99.90;;;;;;5054375;28;35568;-57
2022/05/22 00:44:26;;;;;;;;;;;11.40;99.90;;;;;;5054431;28;38938;-58
2022/05/22 00:46:53;;;;;;;;;;;11.40;99.90;;;;;;5054202;28;38938;-58
2022/05/22 00:49:23;;;;;;;;;;;11.40;99.90;;;;;;5053325;28;37416;-57
2022/05/22 00:51:52;;;;;;;;;;;11.50;99.90;;;;;;5053915;28;36630;-58
2022/05/22 00:54:22;;;;;;;;;;;11.50;99.90;;;;;;5054541;28;36498;-57
2022/05/22 00:56:53;;;;;;;;;;;11.50;99.90;;;;;;5052759;28;38489;-57
2022/05/22 00:59:23;;;;;;;;;;;11.50;99.90;;;;;;5052971;28;37888;-57
2022/05/22 01:01:52;;;;;;;;;;;11.60;99.90;;;;;;5051170;28;37314;-57
2022/05/22 01:04:22;;;;;;;;;;;11.60;99.90;;;;;;5052070;28;38095;-57
2022/05/22 01:06:49;;;;;;;;;;;11.60;99.90;;;;;;5053837;28;39395;-58
2022/05/22 01:09:16;;;;;;;;;;;11.60;99.90;;;;;;5053560;28;36261;-57
2022/05/22 01:11:44;;;;;;;;;;;11.60;99.90;;;;;;5053526;28;36972;-57
2022/05/22 01:14:13;;;;;;;;;;;11.50;99.90;;;;;;5053377;28;38217;-57
2022/05/22 01:16:40;;;;;;;;;;;11.50;99.90;;;;;;5053597;28;39154;-57
2022/05/22 01:19:13;;;;;;;;;;;11.50;99.90;;;;;;5052492;28;36584;-58
2022/05/22 01:21:41;;;;;;;;;;;11.50;99.90;;;;;;5053438;28;36519;-58
2022/05/22 01:24:09;;;;;;;;;;;11.40;99.90;;;;;;5054262;28;36560;-57
2022/05/22 01:26:37;;;;;;;;;;;11.40;99.90;;;;;;5052986;28;38389;-57
2022/05/22 01:29:04;;;;;;;;;;;11.40;99.90;;;;;;5054051;28;37511;-58
2022/05/22 01:31:31;;;;;;;;;;;11.30;99.90;;;;;;5053281;28;37736;-57
2022/05/22 01:33:58;;;;;;;;;;;11.40;99.90;;;;;;5053593;28;37471;-58
2022/05/22 01:36:25;;;;;;;;;;;11.30;99.90;;;;;;5055521;28;40378;-57
2022/05/22 01:38:52;;;;;;;;;;;11.30;99.90;;;;;;5053757;28;37610;-57
2022/05/22 01:41:20;;;;;;;;;;;11.20;99.90;;;;;;5052493;28;35850;-57
2022/05/22 01:43:47;;;;;;;;;;;11.20;99.90;;;;;;5052112;28;38204;-57
2022/05/22 01:46:14;;;;;;;;;;;11.10;99.90;;;;;;5052641;28;36939;-57
2022/05/22 01:48:42;;;;;;;;;;;11.10;99.90;;;;;;5054217;28;38678;-57
2022/05/22 01:51:10;;;;;;;;;;;11.00;99.90;;;;;;5054078;28;36284;-57
2022/05/22 01:53:37;;;;;;;;;;;11.10;99.90;;;;;;5053049;28;36401;-57
2022/05/22 01:56:04;;;;;;;;;;;11.10;99.90;;;;;;5053976;28;38770;-57
2022/05/22 01:58:33;;;;;;;;;;;11.10;99.90;;;;;;5052823;28;37379;-57
2022/05/22 02:01:00;;;;;;;;;;;11.10;99.90;;;;;;5053763;28;36922;-57
2022/05/22 02:03:27;;;;;;;;;;;11.10;99.90;;;;;;5054742;28;41413;-57
2022/05/22 02:05:54;;;;;;;;;;;11.10;99.90;;;;;;5056143;28;39974;-57
2022/05/22 02:08:22;;;;;;;;;;;11.10;99.90;;;;;;5056623;28;37733;-57
2022/05/22 02:10:50;;;;;;;;;;;11.10;99.90;;;;;;5055632;28;36205;-57
2022/05/22 02:13:20;;;;;;;;;;;11.10;99.90;;;;;;5055385;28;37808;-58
2022/05/22 02:15:49;;;;;;;;;;;11.10;99.90;;;;;;5056389;28;37175;-57
2022/05/22 02:18:17;;;;;;;;;;;11.00;99.90;;;;;;5056003;28;37406;-57
2022/05/22 02:20:44;;;;;;;;;;;10.90;99.90;;;;;;5057044;28;36890;-57
2022/05/22 02:23:11;;;;;;;;;;;10.90;99.90;;;;;;5056014;28;38128;-58
2022/05/22 02:25:39;;;;;;;;;;;10.80;99.90;;;;;;5056836;28;37830;-57
2022/05/22 02:28:11;;;;;;;;;;;10.80;99.90;;;;;;5057128;28;36752;-58
2022/05/22 02:30:39;;;;;;;;;;;10.80;99.90;;;;;;5054578;28;38206;-58
2022/05/22 02:33:09;;;;;;;;;;;10.80;99.90;;;;;;5055952;28;39632;-57
2022/05/22 02:35:36;;;;;;;;;;;10.80;99.90;;;;;;5054876;28;39335;-57
2022/05/22 02:38:03;;;;;;;;;;;10.90;99.90;;;;;;5056463;28;40705;-57
2022/05/22 02:40:33;;;;;;;;;;;10.90;99.90;;;;;;5055943;28;38399;-57
2022/05/22 02:43:01;;;;;;;;;;;10.80;99.90;;;;;;5055805;28;35832;-57
2022/05/22 02:45:30;;;;;;;;;;;10.60;99.90;;;;;;5055516;28;39776;-57
2022/05/22 02:47:57;;;;;;;;;;;10.40;99.90;;;;;;5056245;28;38493;-57
2022/05/22 02:50:26;;;;;;;;;;;10.30;99.90;;;;;;5056526;28;36452;-57
2022/05/22 02:52:53;;;;;;;;;;;10.20;99.90;;;;;;5056360;28;38478;-57
2022/05/22 02:55:20;;;;;;;;;;;10.20;99.90;;;;;;5057591;28;37150;-61
2022/05/22 02:57:48;;;;;;;;;;;10.10;99.90;;;;;;5058653;28;37603;-57
2022/05/22 03:00:17;;;;;;;;;;;10.10;99.90;;;;;;5058788;28;37331;-57
2022/05/22 03:02:44;;;;;;;;;;;10.10;99.90;;;;;;5057568;28;37983;-57
2022/05/22 03:05:11;;;;;;;;;;;10.10;99.90;;;;;;5056095;28;39826;-57
2022/05/22 03:07:39;;;;;;;;;;;10.20;99.90;;;;;;5056703;28;37448;-57
2022/05/22 03:10:08;;;;;;;;;;;10.10;99.90;;;;;;5057185;28;37139;-57
2022/05/22 03:12:35;;;;;;;;;;;10.10;99.90;;;;;;5055396;28;38313;-58
2022/05/22 03:15:03;;;;;;;;;;;10.00;99.90;;;;;;5057706;28;37154;-57
2022/05/22 03:17:30;;;;;;;;;;;9.90;99.90;;;;;;5056516;28;36164;-57
2022/05/22 03:19:57;;;;;;;;;;;9.90;99.90;;;;;;5056299;28;36404;-57
2022/05/22 03:22:24;;;;;;;;;;;9.90;99.90;;;;;;5055731;28;36336;-57
2022/05/22 03:24:53;;;;;;;;;;;9.80;99.90;;;;;;5056493;28;40189;-57
2022/05/22 03:27:20;;;;;;;;;;;9.80;99.90;;;;;;5056192;28;38250;-57
2022/05/22 03:29:47;;;;;;;;;;;9.80;99.90;;;;;;5055797;28;35026;-58
2022/05/22 03:32:15;;;;;;;;;;;9.80;99.90;;;;;;5055885;28;40505;-57
2022/05/22 03:34:42;;;;;;;;;;;9.80;99.90;;;;;;5056223;28;39641;-57
2022/05/22 03:37:10;;;;;;;;;;;9.70;99.90;;;;;;5056744;28;38167;-57
2022/05/22 03:39:37;;;;;;;;;;;9.70;99.90;;;;;;5056705;28;37633;-57
2022/05/22 03:42:06;;;;;;;;;;;9.70;99.90;;;;;;5056023;28;38425;-57
2022/05/22 03:44:33;;;;;;;;;;;9.80;99.90;;;;;;5054457;28;38257;-58
2022/05/22 03:47:00;;;;;;;;;;;9.90;99.90;;;;;;5054927;28;39258;-57
2022/05/22 03:49:27;;;;;;;;;;;10.00;99.90;;;;;;5055067;28;37273;-57
2022/05/22 03:51:54;;;;;;;;;;;10.00;99.90;;;;;;5055055;28;36414;-57
2022/05/22 03:54:21;;;;;;;;;;;10.00;99.90;;;;;;5055440;28;38416;-57
2022/05/22 03:56:49;;;;;;;;;;;9.90;99.90;;;;;;5055289;28;35874;-57
2022/05/22 03:59:17;;;;;;;;;;;9.70;99.90;;;;;;5054267;28;35886;-57
2022/05/22 04:01:44;;;;;;;;;;;9.70;99.90;;;;;;5053201;28;37054;-57
2022/05/22 04:04:11;;;;;;;;;;;9.60;99.90;;;;;;5053993;28;39594;-57
2022/05/22 04:06:38;;;;;;;;;;;9.60;99.90;;;;;;5053182;28;37359;-56
2022/05/22 04:09:05;;;;;;;;;;;9.70;99.90;;;;;;5055846;28;36261;-57
2022/05/22 04:11:32;;;;;;;;;;;9.80;99.90;;;;;;5056092;28;37699;-55
2022/05/22 04:14:00;;;;;;;;;;;9.90;99.90;;;;;;5054272;28;38089;-56
2022/05/22 04:16:28;;;;;;;;;;;10.10;99.90;;;;;;5055839;28;36207;-57
2022/05/22 04:18:55;;;;;;;;;;;10.30;99.90;;;;;;5054541;28;36654;-57
2022/05/22 04:21:22;;;;;;;;;;;10.50;99.90;;;;;;5055619;28;37676;-57
2022/05/22 04:26:33;;;;;;;;;;;10.70;99.90;;;;;;5055716;28;39784;-57
2022/05/22 04:29:01;;;;;;;;;;;10.60;99.90;;;;;;5055136;28;35035;-57
2022/05/22 04:31:29;;;;;;;;;;;10.70;99.90;;;;;;5054266;28;39053;-57
2022/05/22 04:33:56;;;;;;;;;;;10.70;99.90;;;;;;5055628;28;39053;-56
2022/05/22 04:36:23;;;;;;;;;;;10.90;99.90;;;;;;5055277;28;36400;-57
2022/05/22 04:38:50;;;;;;;;;;;11.10;99.90;;;;;;5054768;28;37075;-57
2022/05/22 04:41:18;;;;;;;;;;;11.20;99.90;;;;;;5054647;28;36726;-57
2022/05/22 04:43:45;;;;;;;;;;;11.40;99.90;;;;;;5055800;28;38289;-57
2022/05/22 04:46:12;;;;;;;;;;;11.60;99.90;;;;;;5054767;28;38926;-57
2022/05/22 04:48:41;;;;;;;;;;;11.70;99.90;;;;;;5055672;28;36335;-57
2022/05/22 04:51:09;;;;;;;;;;;11.80;99.90;;;;;;5054335;28;37525;-57
2022/05/22 04:53:36;;;;;;;;;;;12.00;99.90;;;;;;5054777;28;38574;-57
2022/05/22 04:56:03;;;;;;;;;;;12.10;99.90;;;;;;5055320;28;38109;-57
2022/05/22 04:58:30;;;;;;;;;;;12.20;99.90;;;;;;5053603;28;38694;-57
2022/05/22 05:00:57;;;;;;;;;;;12.40;99.90;;;;;;5054465;28;37851;-56
2022/05/22 05:03:25;;;;;;;;;;;12.50;99.90;;;;;;5054440;28;37230;-57
2022/05/22 05:06:01;;;;;;;;;;;12.60;99.90;;;;;;5055127;28;38706;-57
2022/05/22 05:08:29;;;;;;;;;;;12.80;99.90;;;;;;5055329;28;36622;-57
2022/05/22 05:10:57;;;;;;;;;;;13.00;99.90;;;;;;5054042;28;36459;-57
2022/05/22 05:13:24;;;;;;;;;;;13.10;99.90;;;;;;5055427;28;40020;-57
2022/05/22 05:15:57;;;;;;;;;;;13.30;99.90;;;;;;5054225;28;37673;-57
2022/05/22 05:18:24;;;;;;;;;;;13.40;99.90;;;;;;5053515;28;38014;-57
2022/05/22 05:20:52;;;;;;;;;;;13.50;99.90;;;;;;5055112;28;37975;-57
2022/05/22 05:23:21;;;;;;;;;;;13.60;99.90;;;;;;5054748;28;38641;-55
2022/05/22 05:25:51;;;;;;;;;;;13.80;99.90;;;;;;5054076;28;37809;-57
2022/05/22 05:28:18;;;;;;;;;;;13.90;99.90;;;;;;5054595;28;35970;-57
2022/05/22 05:30:45;;;;;;;;;;;14.00;99.90;;;;;;5053150;28;39188;-57
2022/05/22 05:33:12;;;;;;;;;;;14.10;99.90;;;;;;5053814;28;37683;-57
2022/05/22 05:35:40;;;;;;;;;;;14.20;99.90;;;;;;5051860;28;38616;-57
2022/05/22 05:38:07;;;;;;;;;;;14.30;99.90;;;;;;5053156;28;36979;-57
2022/05/22 05:40:36;;;;;;;;;;;14.40;99.90;;;;;;5052951;28;40890;-57
2022/05/22 05:43:03;;;;;;;;;;;14.60;99.90;;;;;;5054074;28;38669;-57
2022/05/22 05:45:30;;;;;;;;;;;14.70;99.90;;;;;;5053959;28;38233;-57
2022/05/22 05:47:58;;;;;;;;;;;14.80;99.90;;;;;;5053504;28;37336;-57
2022/05/22 05:50:26;;;;;;;;;;;15.00;99.90;;;;;;5054606;28;37912;-57
2022/05/22 05:52:54;;;;;;;;;;;15.00;99.90;;;;;;5054422;28;37777;-57
2022/05/22 05:55:21;;;;;;;;;;;15.10;99.90;;;;;;5054317;28;38195;-58
2022/05/22 05:57:49;;;;;;;;;;;15.30;99.90;;;;;;5054829;28;34955;-57
2022/05/22 06:00:18;;;;;;;;;;;15.40;99.90;;;;;;5053042;28;37610;-57
2022/05/22 06:02:45;;;;;;;;;;;15.50;99.90;;;;;;5051420;28;38312;-58
2022/05/22 06:05:12;;;;;;;;;;;15.60;99.90;;;;;;5052264;28;37786;-57
2022/05/22 06:07:39;;;;;;;;;;;15.70;99.90;;;;;;5052415;28;35007;-57
2022/05/22 06:10:08;;;;;;;;;;;15.80;99.90;;;;;;5052839;28;38270;-57
2022/05/22 06:12:35;;;;;;;;;;;15.90;99.90;;;;;;5052807;28;38321;-58
2022/05/22 06:15:03;;;;;;;;;;;16.00;99.90;;;;;;5052962;28;39372;-58
2022/05/22 06:17:31;;;;;;;;;;;16.10;99.90;;;;;;5053432;28;35305;-58
2022/05/22 06:19:58;;;;;;;;;;;16.10;99.90;;;;;;5053991;28;38616;-58
2022/05/22 06:22:26;;;;;;;;;;;16.10;99.90;;;;;;5053203;28;39473;-58
2022/05/22 06:24:54;;;;;;;;;;;16.20;99.90;;;;;;5052536;28;37235;-58
2022/05/22 06:27:21;;;;;;;;;;;16.20;99.90;;;;;;5053130;28;36732;-58
2022/05/22 06:29:48;;;;;;;;;;;16.20;99.90;;;;;;5052208;28;37936;-58
2022/05/22 06:32:18;;;;;;;;;;;16.30;99.90;;;;;;5055823;28;37195;-58
2022/05/22 06:34:47;;;;;;;;;;;16.50;99.90;;;;;;5056059;28;39223;-58
2022/05/22 06:37:15;;;;;;;;;;;16.80;99.90;;;;;;5055659;28;37211;-58
2022/05/22 06:39:52;;;;;;;;;;;17.10;99.90;;;;;;5056653;28;39693;-58
2022/05/22 06:42:20;;;;;;;;;;;17.10;99.90;;;;;;5056036;28;38035;-58
2022/05/22 06:44:51;;;;;;;;;;;17.10;99.90;;;;;;5056124;28;38877;-58
2022/05/22 06:47:20;;;;;;;;;;;17.00;99.90;;;;;;5055670;28;38224;-59
2022/05/22 06:49:47;;;;;;;;;;;17.00;99.90;;;;;;5056763;28;38087;-58
2022/05/22 06:52:15;;;;;;;;;;;17.00;99.90;;;;;;5055533;28;37758;-59
2022/05/22 06:54:42;;;;;;;;;;;17.00;99.90;;;;;;5055909;28;37895;-58
2022/05/22 06:57:10;;;;;;;;;;;17.00;99.90;;;;;;5055904;28;34985;-58
2022/05/22 06:59:37;;;;;;;;;;;17.10;99.90;;;;;;5055432;28;38349;-58
2022/05/22 07:02:04;;;;;;;;;;;17.10;99.90;;;;;;5053680;28;38283;-58
2022/05/22 07:04:33;;;;;;;;;;;17.10;99.60;;;;;;5060515;28;37660;-59
2022/05/22 07:07:00;;;;;;;;;;;17.20;99.90;;;;;;5060306;28;37258;-59
2022/05/22 07:09:27;;;;;;;;;;;17.20;98.90;;;;;;5060481;28;39955;-58
2022/05/22 07:11:55;;;;;;;;;;;17.20;98.60;;;;;;5059560;28;36969;-58
2022/05/22 07:14:22;;;;;;;;;;;17.20;99.50;;;;;;5059579;28;39418;-58
2022/05/22 07:16:49;;;;;;;;;;;17.20;99.00;;;;;;5060639;28;36908;-58
2022/05/22 07:19:17;;;;;;;;;;;17.10;99.00;;;;;;5060317;28;36512;-58
2022/05/22 07:21:46;;;;;;;;;;;17.20;99.50;;;;;;5060703;28;40824;-58
2022/05/22 07:24:13;;;;;;;;;;;17.30;99.90;;;;;;5059216;28;37813;-57
2022/05/22 07:26:40;;;;;;;;;;;17.30;99.30;;;;;;5060201;28;36273;-58
2022/05/22 07:29:07;;;;;;;;;;;17.30;98.40;;;;;;5060120;28;38407;-58
2022/05/22 07:31:35;;;;;;;;;;;17.30;99.90;;;;;;5059760;28;38111;-58
2022/05/22 07:34:02;;;;;;;;;;;17.30;99.00;;;;;;5060278;28;36529;-58
2022/05/22 07:36:29;;;;;;;;;;;17.40;98.50;;;;;;5060055;28;37051;-58
2022/05/22 07:38:57;;;;;;;;;;;17.40;99.20;;;;;;5060507;28;37610;-58
2022/05/22 07:41:24;;;;;;;;;;;17.40;99.10;;;;;;5058280;28;38100;-58
2022/05/22 07:43:51;;;;;;;;;;;17.50;97.90;;;;;;5060281;28;38755;-58
2022/05/22 07:46:18;;;;;;;;;;;17.40;97.80;;;;;;5059293;28;36180;-58
2022/05/22 07:48:45;;;;;;;;;;;17.50;97.70;;;;;;5058487;28;38080;-58
2022/05/22 07:51:15;;;;;;;;;;;17.50;97.50;;;;;;5058631;28;38645;-58
2022/05/22 07:53:43;;;;;;;;;;;17.50;98.00;;;;;;5058751;28;37873;-59
2022/05/22 07:56:12;;;;;;;;;;;17.60;98.00;;;;;;5056894;28;36470;-57
2022/05/22 07:58:40;;;;;;;;;;;17.60;97.80;;;;;;5058851;28;37279;-58
2022/05/22 08:01:07;;;;;;;;;;;17.70;97.30;;;;;;5058035;28;39529;-58
2022/05/22 08:03:34;;;;;;;;;;;17.90;95.70;;;;;;5057220;28;38963;-58
2022/05/22 08:06:01;;;;;;;;;;;17.90;96.30;;;;;;5055635;28;36895;-57
2022/05/22 08:08:29;;;;;;;;;;;18.00;98.00;;;;;;5055586;28;37706;-58
2022/05/22 08:10:57;;;;;;;;;;;18.10;97.20;;;;;;5055920;28;37502;-58
2022/05/22 08:13:26;;;;;;;;;;;18.20;97.00;;;;;;5056804;28;39490;-58
2022/05/22 08:15:53;;;;;;;;;;;18.30;96.10;;;;;;5056493;28;35049;-58
2022/05/22 08:18:21;;;;;;;;;;;18.40;94.50;;;;;;5057488;28;39252;-58
2022/05/22 08:20:49;;;;;;;;;;;18.40;94.60;;;;;;5056755;28;39300;-59
2022/05/22 08:23:18;;;;;;;;;;;18.50;95.10;;;;;;5058096;28;36212;-58
2022/05/22 08:25:45;;;;;;;;;;;18.50;94.80;;;;;;5057140;28;36177;-59
2022/05/22 08:28:12;;;;;;;;;;;18.60;95.20;;;;;;5056714;28;37917;-58
2022/05/22 08:30:41;;;;;;;;;;;18.70;95.40;;;;;;5057653;28;38826;-58
2022/05/22 08:33:08;;;;;;;;;;;18.80;91.90;;;;;;5057378;28;37617;-58
2022/05/22 08:35:36;;;;;;;;;;;18.70;91.90;;;;;;5057156;28;37839;-58
2022/05/22 08:38:07;;;;;;;;;;;18.80;93.10;;;;;;5058820;28;37527;-58
2022/05/22 08:40:39;;;;;;;;;;;18.90;93.30;;;;;;5057503;28;38356;-59
2022/05/22 08:43:10;;;;;;;;;;;18.90;92.90;;;;;;5054986;28;39538;-59
2022/05/22 08:45:40;;;;;;;;;;;18.90;91.90;;;;;;5056891;28;36335;-59
2022/05/22 08:48:11;;;;;;;;;;;18.90;90.60;;;;;;5056230;28;37433;-59
2022/05/22 08:50:38;;;;;;;;;;;18.90;91.30;;;;;;5057911;28;40058;-59
2022/05/22 08:53:07;;;;;;;;;;;19.00;92.40;;;;;;5056694;28;37544;-58
2022/05/22 09:01:08;;;;;;;;;;;19.40;88.50;;;;;;5057968;28;39866;-58
2022/05/22 09:03:40;;;;;;;;;;;19.40;90.10;;;;;;5057598;28;37803;-59
2022/05/22 09:06:08;;;;;;;;;;;19.40;91.70;;;;;;5058921;28;36154;-59
2022/05/22 09:26:45;;;;;;;;;;;20.10;84.00;;;;;;5009943;28;20359;-59
2022/05/22 09:29:19;;;;;;;;;;;19.90;85.60;;;;;;5015353;28;38523;-58
2022/05/22 09:34:23;;;;;;;;;;;20.00;87.20;;;;;;5463492;22;39967;-59
2022/05/22 09:36:56;;;;;;;;;;;20.10;83.90;;;;;;5009482;28;38660;-59
2022/05/22 09:39:27;;;;;;;;;;;20.00;84.80;;;;;;5009096;28;38134;-59
2022/05/22 09:42:09;;;;;;;;;;;20.10;84.60;;;;;;5009338;28;38911;-59
2022/05/22 09:44:44;;;;;;;;;;;20.20;85.70;;;;;;5008219;28;37957;-59
2022/05/22 09:47:20;;;;;;;;;;;20.20;82.40;;;;;;5009900;28;36057;-59
2022/05/22 09:49:53;;;;;;;;;;;20.20;83.20;;;;;;5010347;28;38012;-58
2022/05/22 09:52:22;;;;;;;;;;;20.30;87.60;;;;;;5010913;28;38632;-58
2022/05/22 09:54:56;;;;;;;;;;;20.40;84.50;;;;;;5011106;28;38971;-59
2022/05/22 09:57:30;;;;;;;;;;;20.40;86.40;;;;;;5012710;28;36180;-59
2022/05/22 10:00:06;;;;;;;;;;;20.40;81.90;;;;;;5011270;28;38493;-59
2022/05/22 10:02:38;;;;;;;;;;;20.50;84.40;;;;;;5009654;28;38860;-59
2022/05/22 10:05:11;;;;;;;;;;;20.60;81.30;;;;;;5010507;28;38766;-59
2022/05/22 10:07:41;;;;;;;;;;;20.60;86.50;;;;;;5014417;28;37791;-59
2022/05/22 10:10:11;;;;;;;;;;;20.60;79.50;;;;;;5013435;28;38217;-59
2022/05/22 10:12:44;;;;;;;;;;;20.60;76.60;;;;;;5013741;28;38253;-58
2022/05/22 10:15:18;;;;;;;;;;;20.40;77.50;;;;;;5014028;28;38997;-59
2022/05/22 10:17:51;;;;;;;;;;;20.20;79.80;;;;;;5014351;28;37423;-59
2022/05/22 10:20:22;;;;;;;;;;;20.10;80.40;;;;;;5015265;28;37644;-58
2022/05/22 10:22:55;;;;;;;;;;;20.10;79.80;;;;;;5014637;28;39158;-58
2022/05/22 10:25:39;;;;;;;;;;;20.00;82.20;;;;;;5011315;28;37221;-58
2022/05/22 10:28:10;;;;;;;;;;;20.00;82.50;;;;;;5016350;28;37934;-59
2022/05/22 10:30:40;;;;;;;;;;;20.10;81.60;;;;;;5014748;28;37498;-59
2022/05/22 10:33:09;;;;;;;;;;;20.20;80.50;;;;;;5017518;28;39103;-59
2022/05/22 10:35:40;;;;;;;;;;;20.30;79.90;;;;;;5032753;28;37328;-58
2022/05/22 10:38:10;;;;;;;;;;;20.30;77.60;;;;;;5030039;28;37075;-58
2022/05/22 10:43:30;;;;;;;;;;;20.40;76.80;;;;;;5031908;28;39328;-58
2022/05/22 10:45:57;;;;;;;;;;;20.50;77.60;;;;;;5032000;28;39146;-58
2022/05/22 10:48:26;;;;;;;;;;;20.50;76.00;;;;;;5030930;28;35091;-58
2022/05/22 10:50:54;;;;;;;;;;;20.50;72.20;;;;;;5032582;28;37929;-58
2022/05/22 10:53:23;;;;;;;;;;;20.50;71.50;;;;;;5029788;28;37055;-58
2022/05/22 10:55:52;;;;;;;;;;;20.40;68.30;;;;;;5032832;28;38484;-58
2022/05/22 10:58:24;;;;;;;;;;;20.40;70.90;;;;;;5032194;28;36807;-58
2022/05/22 11:00:53;;;;;;;;;;;20.40;77.00;;;;;;5028934;28;38319;-58
2022/05/22 11:03:24;;;;;;;;;;;20.40;74.30;;;;;;5028925;28;39208;-58
2022/05/22 11:05:52;;;;;;;;;;;20.40;74.30;;;;;;5029041;28;37642;-58
2022/05/22 11:08:25;;;;;;;;;;;20.50;77.00;;;;;;5025063;28;36719;-59
2022/05/22 11:10:52;;;;;;;;;;;20.50;80.30;;;;;;5030684;28;38001;-59
2022/05/22 11:13:22;;;;;;;;;;;20.60;76.70;;;;;;5030996;28;38515;-58
2022/05/22 11:15:49;;;;;;;;;;;20.70;74.50;;;;;;5021311;28;37707;-58
2022/05/22 11:18:22;;;;;;;;;;;20.70;72.40;;;;;;5027857;28;36573;-58
2022/05/22 11:20:51;;;;;;;;;;;20.70;73.20;;;;;;5029065;28;36566;-58
2022/05/22 11:23:29;;;;;;;;;;;20.70;73.60;;;;;;5029031;28;39952;-58
2022/05/22 11:26:02;;;;;;;;;;;20.80;69.00;;;;;;5030747;28;36184;-58
2022/05/22 11:28:39;;;;;;;;;;;20.80;76.00;;;;;;5028819;28;36431;-58
2022/05/22 11:31:18;;;;;;;;;;;20.80;72.80;;;;;;5032296;28;38756;-58
2022/05/22 11:33:53;;;;;;;;;;;20.80;72.00;;;;;;5029899;28;38593;-58
2022/05/22 11:36:26;;;;;;;;;;;20.90;68.90;;;;;;5028610;28;37614;-58
2022/05/22 11:39:02;;;;;;;;;;;20.90;69.60;;;;;;5027436;28;37114;-58
2022/05/22 11:41:33;;;;;;;;;;;20.80;70.20;;;;;;5029719;28;37637;-58
2022/05/22 11:44:15;;;;;;;;;;;20.80;71.20;;;;;;5030389;28;38698;-58
2022/05/22 11:46:50;;;;;;;;;;;20.90;78.30;;;;;;5030700;28;37361;-58
2022/05/22 11:49:24;;;;;;;;;;;21.00;74.80;;;;;;5031184;28;37049;-58
2022/05/22 11:51:59;;;;;;;;;;;21.00;75.30;;;;;;5029812;28;38276;-58
2022/05/22 11:54:34;;;;;;;;;;;21.00;66.90;;;;;;5030617;28;38049;-57
2022/05/22 11:57:07;;;;;;;;;;;20.90;71.40;;;;;;5030348;28;38832;-58
2022/05/22 11:59:52;;;;;;;;;;;20.90;73.60;;;;;;5029715;28;35162;-58
2022/05/22 12:02:26;;;;;;;;;;;21.00;69.40;;;;;;5028060;28;37855;-58
2022/05/22 12:05:17;;;;;;;;;;;20.90;69.80;;;;;;5030273;28;39073;-58
2022/05/22 12:08:12;;;;;;;;;;;20.90;68.20;;;;;;5030914;28;39918;-59
2022/05/22 12:10:41;;;;;;;;;;;20.90;72.30;;;;;;4990009;28;36297;-58
2022/05/22 12:13:13;;;;;;;;;;;20.90;64.50;;;;;;5029301;28;37520;-57
2022/05/22 12:15:43;;;;;;;;;;;20.90;68.90;;;;;;5030793;28;38597;-58
2022/05/22 12:18:19;;;;;;;;;;;20.80;70.00;;;;;;5028925;28;39032;-58
2022/05/22 12:20:49;;;;;;;;;;;20.80;68.30;;;;;;5031069;28;37314;-58
2022/05/22 12:23:20;;;;;;;;;;;20.80;75.10;;;;;;5029582;28;37672;-57
2022/05/22 12:25:49;;;;;;;;;;;20.80;71.80;;;;;;5032502;28;39135;-57
2022/05/22 12:28:35;;;;;;;;;;;20.70;73.30;;;;;;5029888;28;37470;-57
2022/05/22 12:31:04;;;;;;;;;;;20.70;72.50;;;;;;5031287;28;35214;-58
2022/05/22 12:33:32;;;;;;;;;;;20.80;77.90;;;;;;5029096;28;36600;-57
2022/05/22 12:36:01;;;;;;;;;;;20.90;75.60;;;;;;5029051;28;39243;-58
2022/05/22 12:38:29;;;;;;;;;;;20.90;71.20;;;;;;5029835;28;37682;-57
2022/05/22 12:40:59;;;;;;;;;;;20.80;71.00;;;;;;5030328;28;37756;-58
2022/05/22 12:43:26;;;;;;;;;;;20.70;75.90;;;;;;5030086;28;37694;-58
2022/05/22 12:45:54;;;;;;;;;;;20.60;73.90;;;;;;5030907;28;40698;-57
2022/05/22 12:48:25;;;;;;;;;;;20.50;71.50;;;;;;5028421;28;36359;-57
2022/05/22 12:50:54;;;;;;;;;;;20.40;72.10;;;;;;5029869;28;37185;-57
2022/05/22 12:53:29;;;;;;;;;;;20.30;71.40;;;;;;5031519;28;36452;-57
2022/05/22 12:55:56;;;;;;;;;;;20.20;74.40;;;;;;5030402;28;37321;-57
2022/05/22 12:58:32;;;;;;;;;;;20.10;75.20;;;;;;5031299;28;37736;-57
2022/05/22 13:00:59;;;;;;;;;;;20.00;75.60;;;;;;5031819;28;36680;-57
2022/05/22 13:03:29;;;;;;;;;;;20.00;73.00;;;;;;5028456;28;37964;-57
2022/05/22 13:05:58;;;;;;;;;;;20.00;73.00;;;;;;5030426;28;38171;-57
2022/05/22 13:08:29;;;;;;;;;;;19.90;74.20;;;;;;5027536;28;38910;-57
2022/05/22 13:10:57;;;;;;;;;;;19.90;75.70;;;;;;5030817;28;34928;-57
2022/05/22 13:13:27;;;;;;;;;;;19.90;76.20;;;;;;5028518;28;36382;-57
2022/05/22 13:15:56;;;;;;;;;;;19.90;75.40;;;;;;5030634;28;38356;-57
2022/05/22 13:18:23;;;;;;;;;;;20.00;78.30;;;;;;5029207;28;37677;-57
2022/05/22 13:20:52;;;;;;;;;;;19.90;77.00;;;;;;5030452;28;37050;-57
2022/05/22 13:23:33;;;;;;;;;;;19.90;77.80;;;;;;5029618;28;39576;-57
2022/05/22 13:26:01;;;;;;;;;;;19.90;81.10;;;;;;5030253;28;38539;-57
2022/05/22 13:28:29;;;;;;;;;;;19.90;79.20;;;;;;5030746;28;37939;-57
2022/05/22 13:30:58;;;;;;;;;;;19.90;75.70;;;;;;5032246;28;37013;-57
2022/05/22 13:33:25;;;;;;;;;;;19.90;76.40;;;;;;5030665;28;37726;-57
2022/05/22 13:35:55;;;;;;;;;;;19.90;76.30;;;;;;5029790;28;38525;-57
2022/05/22 13:38:22;;;;;;;;;;;19.80;73.30;;;;;;5032672;28;37578;-57
2022/05/22 13:40:57;;;;;;;;;;;19.80;76.70;;;;;;5033769;28;38019;-57
2022/05/22 13:43:45;;;;;;;;;;;19.80;79.50;;;;;;5034571;28;37624;-57
2022/05/22 13:46:27;;;;;;;;;;;19.90;81.20;;;;;;5035173;28;39199;-57
2022/05/22 13:49:01;;;;;;;;;;;20.00;77.50;;;;;;5033355;28;36454;-57
2022/05/22 13:54:38;;;;;;;;;;;20.00;74.80;;;;;;5034227;28;38618;-57
2022/05/22 13:57:11;;;;;;;;;;;19.90;71.70;;;;;;5033595;28;36952;-58
2022/05/22 13:59:42;;;;;;;;;;;19.90;75.20;;;;;;5034191;28;37602;-57
2022/05/22 14:02:11;;;;;;;;;;;19.80;73.10;;;;;;5032435;28;37025;-57
2022/05/22 14:04:39;;;;;;;;;;;19.80;75.20;;;;;;5032105;28;39021;-58
2022/05/22 14:07:07;;;;;;;;;;;19.80;73.80;;;;;;5033160;28;38985;-57
2022/05/22 14:09:37;;;;;;;;;;;19.80;75.20;;;;;;5033644;28;37659;-57
2022/05/22 14:12:06;;;;;;;;;;;19.80;75.40;;;;;;5033757;28;37317;-57
2022/05/22 14:14:35;;;;;;;;;;;19.70;74.20;;;;;;5033767;28;38277;-57
2022/05/22 14:17:04;;;;;;;;;;;19.70;76.20;;;;;;5034442;28;36494;-57
2022/05/22 14:19:33;;;;;;;;;;;19.70;76.70;;;;;;5033370;28;36517;-57
2022/05/22 14:22:07;;;;;;;;;;;19.70;76.30;;;;;;5032949;28;36600;-57
2022/05/22 14:27:22;;;;;;;;;;;19.70;74.50;;;;;;5032981;28;39645;-56
2022/05/22 14:29:50;;;;;;;;;;;19.70;78.30;;;;;;5031693;28;37690;-57
2022/05/22 14:32:19;;;;;;;;;;;19.70;77.10;;;;;;5033267;28;34889;-56
2022/05/22 14:34:47;;;;;;;;;;;19.70;75.50;;;;;;5032913;28;37496;-57
2022/05/22 14:37:15;;;;;;;;;;;19.70;75.40;;;;;;5033207;28;38363;-57
2022/05/22 14:39:51;;;;;;;;;;;19.70;75.30;;;;;;5033852;28;39220;-57
2022/05/22 14:42:20;;;;;;;;;;;19.70;76.90;;;;;;5033543;28;36555;-57
2022/05/22 14:44:48;;;;;;;;;;;19.70;76.70;;;;;;5033245;28;37586;-57
2022/05/22 14:47:23;;;;;;;;;;;19.60;76.60;;;;;;5033706;28;38087;-57
2022/05/22 14:49:52;;;;;;;;;;;19.60;76.60;;;;;;5031149;28;38913;-57
2022/05/22 14:52:22;;;;;;;;;;;19.50;77.00;;;;;;5035200;28;36183;-57
2022/05/22 14:54:51;;;;;;;;;;;19.50;78.70;;;;;;5036074;28;36354;-57
2022/05/22 14:57:20;;;;;;;;;;;19.50;77.60;;;;;;5036156;28;38661;-58
2022/05/22 14:59:50;;;;;;;;;;;19.50;79.70;;;;;;5035603;28;38157;-58
2022/05/22 15:02:21;;;;;;;;;;;19.50;80.50;;;;;;5035278;28;34982;-58
2022/05/22 15:04:49;;;;;;;;;;;19.50;79.60;;;;;;5034482;28;38735;-58
2022/05/22 15:07:19;;;;;;;;;;;19.50;78.40;;;;;;5035674;28;41402;-58